sensor_id;sensor_type;location;lat;lon;timestamp;P1;durP1;ratioP1;P2;durP2;ratioP2
55575;SDS011;41437;45.478;9.116;2022-12-07T00:01:06;53.83;;;33.85;;
55575;SDS011;41437;45.478;9.116;2022-12-07T00:04:30;54.97;;;34.85;;
55575;SDS011;41437;45.478;9.116;2022-12-07T00:07:49;55.97;;;36.92;;
55575;SDS011;41437;45.478;9.116;2022-12-07T00:10:52;46.60;;;32.40;;
55575;SDS011;41437;45.478;9.116;2022-12-07T00:13:54;50.40;;;32.22;;
55575;SDS011;41437;45.478;9.116;2022-12-07T00:16:58;49.60;;;32.95;;
55575;SDS011;41437;45.478;9.116;2022-12-07T00:19:59;47.35;;;33.40;;
55575;SDS011;41437;45.478;9.116;2022-12-07T00:23:01;51.33;;;33.45;;
55575;SDS011;41437;45.478;9.116;2022-12-07T00:26:05;49.67;;;33.25;;
55575;SDS011;41437;45.478;9.116;2022-12-07T00:29:09;45.63;;;32.15;;
55575;SDS011;41437;45.478;9.116;2022-12-07T00:32:15;52.28;;;32.78;;
55575;SDS011;41437;45.478;9.116;2022-12-07T00:35:17;51.60;;;34.85;;
55575;SDS011;41437;45.478;9.116;2022-12-07T00:38:19;55.67;;;34.35;;
55575;SDS011;41437;45.478;9.116;2022-12-07T00:41:22;52.17;;;33.47;;
55575;SDS011;41437;45.478;9.116;2022-12-07T00:44:26;49.67;;;35.15;;
55575;SDS011;41437;45.478;9.116;2022-12-07T00:47:28;49.65;;;34.35;;
55575;SDS011;41437;45.478;9.116;2022-12-07T00:50:29;47.08;;;33.47;;
55575;SDS011;41437;45.478;9.116;2022-12-07T00:53:31;51.58;;;36.42;;
55575;SDS011;41437;45.478;9.116;2022-12-07T00:56:37;48.25;;;34.53;;
55575;SDS011;41437;45.478;9.116;2022-12-07T00:59:38;55.45;;;36.88;;
55575;SDS011;41437;45.478;9.116;2022-12-07T01:02:40;57.70;;;35.83;;
55575;SDS011;41437;45.478;9.116;2022-12-07T01:05:48;55.67;;;36.17;;
55575;SDS011;41437;45.478;9.116;2022-12-07T01:08:51;52.60;;;36.97;;
55575;SDS011;41437;45.478;9.116;2022-12-07T01:11:55;49.67;;;35.40;;
55575;SDS011;41437;45.478;9.116;2022-12-07T01:14:57;53.07;;;35.77;;
55575;SDS011;41437;45.478;9.116;2022-12-07T01:17:59;54.80;;;36.67;;
55575;SDS011;41437;45.478;9.116;2022-12-07T01:21:01;51.15;;;36.45;;
55575;SDS011;41437;45.478;9.116;2022-12-07T01:27:09;51.67;;;34.88;;
55575;SDS011;41437;45.478;9.116;2022-12-07T01:30:11;49.40;;;35.28;;
55575;SDS011;41437;45.478;9.116;2022-12-07T01:33:13;49.88;;;34.38;;
55575;SDS011;41437;45.478;9.116;2022-12-07T01:36:16;49.22;;;33.33;;
55575;SDS011;41437;45.478;9.116;2022-12-07T01:39:20;51.42;;;33.67;;
55575;SDS011;41437;45.478;9.116;2022-12-07T01:42:23;50.25;;;33.50;;
55575;SDS011;41437;45.478;9.116;2022-12-07T01:45:34;48.53;;;33.70;;
55575;SDS011;41437;45.478;9.116;2022-12-07T01:48:40;48.20;;;32.20;;
55575;SDS011;41437;45.478;9.116;2022-12-07T01:51:44;47.63;;;31.93;;
55575;SDS011;41437;45.478;9.116;2022-12-07T01:54:48;47.97;;;31.70;;
55575;SDS011;41437;45.478;9.116;2022-12-07T01:57:54;46.22;;;32.35;;
55575;SDS011;41437;45.478;9.116;2022-12-07T02:00:57;50.13;;;32.30;;
55575;SDS011;41437;45.478;9.116;2022-12-07T02:03:59;46.55;;;30.70;;
55575;SDS011;41437;45.478;9.116;2022-12-07T02:07:00;52.38;;;32.10;;
55575;SDS011;41437;45.478;9.116;2022-12-07T02:10:11;51.78;;;33.90;;
55575;SDS011;41437;45.478;9.116;2022-12-07T02:13:16;49.45;;;32.30;;
55575;SDS011;41437;45.478;9.116;2022-12-07T02:16:25;40.83;;;29.92;;
55575;SDS011;41437;45.478;9.116;2022-12-07T02:19:40;37.72;;;29.95;;
55575;SDS011;41437;45.478;9.116;2022-12-07T02:23:12;39.78;;;29.88;;
55575;SDS011;41437;45.478;9.116;2022-12-07T02:26:39;48.90;;;32.60;;
55575;SDS011;41437;45.478;9.116;2022-12-07T02:29:57;47.80;;;33.75;;
55575;SDS011;41437;45.478;9.116;2022-12-07T02:33:04;48.17;;;33.67;;
55575;SDS011;41437;45.478;9.116;2022-12-07T02:36:11;53.83;;;33.65;;
55575;SDS011;41437;45.478;9.116;2022-12-07T02:39:19;47.10;;;33.00;;
55575;SDS011;41437;45.478;9.116;2022-12-07T02:42:32;53.88;;;34.47;;
55575;SDS011;41437;45.478;9.116;2022-12-07T02:45:39;53.15;;;36.60;;
55575;SDS011;41437;45.478;9.116;2022-12-07T02:48:43;52.92;;;36.33;;
55575;SDS011;41437;45.478;9.116;2022-12-07T02:51:47;53.50;;;35.20;;
55575;SDS011;41437;45.478;9.116;2022-12-07T02:54:49;51.60;;;33.42;;
55575;SDS011;41437;45.478;9.116;2022-12-07T02:57:54;51.10;;;36.22;;
55575;SDS011;41437;45.478;9.116;2022-12-07T03:01:11;51.53;;;33.90;;
55575;SDS011;41437;45.478;9.116;2022-12-07T03:04:28;53.83;;;35.92;;
55575;SDS011;41437;45.478;9.116;2022-12-07T03:07:43;49.22;;;34.28;;
55575;SDS011;41437;45.478;9.116;2022-12-07T03:10:54;49.15;;;33.88;;
55575;SDS011;41437;45.478;9.116;2022-12-07T03:14:00;45.03;;;31.25;;
55575;SDS011;41437;45.478;9.116;2022-12-07T03:17:09;49.55;;;33.47;;
55575;SDS011;41437;45.478;9.116;2022-12-07T03:20:16;48.83;;;32.75;;
55575;SDS011;41437;45.478;9.116;2022-12-07T03:23:22;45.78;;;32.00;;
55575;SDS011;41437;45.478;9.116;2022-12-07T03:29:33;45.75;;;31.10;;
55575;SDS011;41437;45.478;9.116;2022-12-07T03:32:40;42.05;;;31.10;;
55575;SDS011;41437;45.478;9.116;2022-12-07T03:35:47;42.85;;;28.98;;
55575;SDS011;41437;45.478;9.116;2022-12-07T03:38:53;47.58;;;31.92;;
55575;SDS011;41437;45.478;9.116;2022-12-07T03:42:02;41.33;;;28.52;;
55575;SDS011;41437;45.478;9.116;2022-12-07T03:45:07;39.63;;;27.40;;
55575;SDS011;41437;45.478;9.116;2022-12-07T03:48:13;39.22;;;27.10;;
55575;SDS011;41437;45.478;9.116;2022-12-07T03:51:25;43.13;;;27.93;;
55575;SDS011;41437;45.478;9.116;2022-12-07T03:54:34;41.83;;;28.42;;
55575;SDS011;41437;45.478;9.116;2022-12-07T03:57:41;38.08;;;27.08;;
55575;SDS011;41437;45.478;9.116;2022-12-07T04:00:46;37.70;;;27.50;;
55575;SDS011;41437;45.478;9.116;2022-12-07T04:03:49;39.38;;;28.25;;
55575;SDS011;41437;45.478;9.116;2022-12-07T04:06:51;43.33;;;30.15;;
55575;SDS011;41437;45.478;9.116;2022-12-07T04:09:53;36.10;;;26.83;;
55575;SDS011;41437;45.478;9.116;2022-12-07T04:12:55;37.13;;;25.23;;
55575;SDS011;41437;45.478;9.116;2022-12-07T04:15:57;38.25;;;27.25;;
55575;SDS011;41437;45.478;9.116;2022-12-07T04:19:00;39.78;;;29.05;;
55575;SDS011;41437;45.478;9.116;2022-12-07T04:22:02;43.45;;;30.55;;
55575;SDS011;41437;45.478;9.116;2022-12-07T04:25:05;38.33;;;27.63;;
55575;SDS011;41437;45.478;9.116;2022-12-07T04:28:07;41.20;;;27.92;;
55575;SDS011;41437;45.478;9.116;2022-12-07T04:31:09;39.35;;;26.85;;
55575;SDS011;41437;45.478;9.116;2022-12-07T04:34:12;36.17;;;26.58;;
55575;SDS011;41437;45.478;9.116;2022-12-07T04:37:14;38.40;;;25.95;;
55575;SDS011;41437;45.478;9.116;2022-12-07T04:40:17;35.38;;;25.58;;
55575;SDS011;41437;45.478;9.116;2022-12-07T04:43:19;39.00;;;26.15;;
55575;SDS011;41437;45.478;9.116;2022-12-07T04:46:21;38.50;;;26.67;;
55575;SDS011;41437;45.478;9.116;2022-12-07T04:49:24;35.33;;;26.85;;
55575;SDS011;41437;45.478;9.116;2022-12-07T04:52:26;39.07;;;25.10;;
55575;SDS011;41437;45.478;9.116;2022-12-07T04:55:28;38.63;;;25.63;;
55575;SDS011;41437;45.478;9.116;2022-12-07T04:58:29;35.72;;;25.00;;
55575;SDS011;41437;45.478;9.116;2022-12-07T05:01:31;36.45;;;25.20;;
55575;SDS011;41437;45.478;9.116;2022-12-07T05:04:35;35.08;;;25.88;;
55575;SDS011;41437;45.478;9.116;2022-12-07T05:07:36;35.45;;;25.75;;
55575;SDS011;41437;45.478;9.116;2022-12-07T05:10:38;34.55;;;24.05;;
55575;SDS011;41437;45.478;9.116;2022-12-07T05:13:39;35.83;;;23.75;;
55575;SDS011;41437;45.478;9.116;2022-12-07T05:16:41;40.92;;;26.27;;
55575;SDS011;41437;45.478;9.116;2022-12-07T05:19:47;35.80;;;24.48;;
55575;SDS011;41437;45.478;9.116;2022-12-07T05:22:48;31.60;;;23.10;;
55575;SDS011;41437;45.478;9.116;2022-12-07T05:25:50;34.13;;;23.73;;
55575;SDS011;41437;45.478;9.116;2022-12-07T05:28:51;38.10;;;24.58;;
55575;SDS011;41437;45.478;9.116;2022-12-07T05:31:53;33.13;;;23.25;;
55575;SDS011;41437;45.478;9.116;2022-12-07T05:34:56;36.50;;;25.23;;
55575;SDS011;41437;45.478;9.116;2022-12-07T05:37:58;33.83;;;23.52;;
55575;SDS011;41437;45.478;9.116;2022-12-07T05:41:00;35.15;;;24.60;;
55575;SDS011;41437;45.478;9.116;2022-12-07T05:44:02;34.78;;;25.45;;
55575;SDS011;41437;45.478;9.116;2022-12-07T05:47:04;35.28;;;25.33;;
55575;SDS011;41437;45.478;9.116;2022-12-07T05:50:07;37.25;;;25.35;;
55575;SDS011;41437;45.478;9.116;2022-12-07T05:53:09;40.30;;;26.70;;
55575;SDS011;41437;45.478;9.116;2022-12-07T05:56:11;35.78;;;25.70;;
55575;SDS011;41437;45.478;9.116;2022-12-07T05:59:13;35.42;;;26.00;;
55575;SDS011;41437;45.478;9.116;2022-12-07T06:02:23;35.55;;;25.27;;
55575;SDS011;41437;45.478;9.116;2022-12-07T06:05:26;32.88;;;24.77;;
55575;SDS011;41437;45.478;9.116;2022-12-07T06:08:28;39.22;;;24.92;;
55575;SDS011;41437;45.478;9.116;2022-12-07T06:11:30;33.63;;;24.17;;
55575;SDS011;41437;45.478;9.116;2022-12-07T06:14:49;31.23;;;23.55;;
55575;SDS011;41437;45.478;9.116;2022-12-07T06:17:52;33.38;;;24.17;;
55575;SDS011;41437;45.478;9.116;2022-12-07T06:20:55;41.55;;;25.77;;
55575;SDS011;41437;45.478;9.116;2022-12-07T06:23:56;35.05;;;23.98;;
55575;SDS011;41437;45.478;9.116;2022-12-07T06:26:58;35.08;;;24.98;;
55575;SDS011;41437;45.478;9.116;2022-12-07T06:30:00;35.00;;;24.75;;
55575;SDS011;41437;45.478;9.116;2022-12-07T06:33:06;33.92;;;23.98;;
55575;SDS011;41437;45.478;9.116;2022-12-07T06:36:09;33.95;;;24.65;;
55575;SDS011;41437;45.478;9.116;2022-12-07T06:39:11;38.67;;;25.30;;
55575;SDS011;41437;45.478;9.116;2022-12-07T06:42:13;34.40;;;25.35;;
55575;SDS011;41437;45.478;9.116;2022-12-07T06:45:14;45.58;;;25.65;;
55575;SDS011;41437;45.478;9.116;2022-12-07T06:48:16;38.95;;;26.10;;
55575;SDS011;41437;45.478;9.116;2022-12-07T06:51:21;34.22;;;25.88;;
55575;SDS011;41437;45.478;9.116;2022-12-07T06:54:22;62.15;;;28.88;;
55575;SDS011;41437;45.478;9.116;2022-12-07T06:57:24;38.53;;;26.83;;
55575;SDS011;41437;45.478;9.116;2022-12-07T07:00:26;101.68;;;26.90;;
55575;SDS011;41437;45.478;9.116;2022-12-07T07:03:27;39.13;;;26.85;;
55575;SDS011;41437;45.478;9.116;2022-12-07T07:06:30;51.75;;;24.38;;
55575;SDS011;41437;45.478;9.116;2022-12-07T07:09:32;38.47;;;23.98;;
55575;SDS011;41437;45.478;9.116;2022-12-07T07:12:34;39.65;;;23.17;;
55575;SDS011;41437;45.478;9.116;2022-12-07T07:15:37;48.30;;;25.90;;
55575;SDS011;41437;45.478;9.116;2022-12-07T07:18:39;56.75;;;26.52;;
55575;SDS011;41437;45.478;9.116;2022-12-07T07:21:43;48.35;;;24.77;;
55575;SDS011;41437;45.478;9.116;2022-12-07T07:24:44;45.53;;;24.75;;
55575;SDS011;41437;45.478;9.116;2022-12-07T07:27:46;72.63;;;26.40;;
55575;SDS011;41437;45.478;9.116;2022-12-07T07:30:48;47.03;;;25.58;;
55575;SDS011;41437;45.478;9.116;2022-12-07T07:33:49;61.03;;;26.58;;
55575;SDS011;41437;45.478;9.116;2022-12-07T07:36:52;48.15;;;24.90;;
55575;SDS011;41437;45.478;9.116;2022-12-07T07:39:54;44.45;;;23.80;;
55575;SDS011;41437;45.478;9.116;2022-12-07T07:42:56;43.72;;;23.90;;
55575;SDS011;41437;45.478;9.116;2022-12-07T07:45:59;38.92;;;23.30;;
55575;SDS011;41437;45.478;9.116;2022-12-07T07:49:00;35.65;;;20.25;;
55575;SDS011;41437;45.478;9.116;2022-12-07T07:52:04;41.42;;;21.80;;
55575;SDS011;41437;45.478;9.116;2022-12-07T07:55:06;42.65;;;22.13;;
55575;SDS011;41437;45.478;9.116;2022-12-07T07:58:09;51.70;;;20.73;;
55575;SDS011;41437;45.478;9.116;2022-12-07T08:04:19;35.28;;;20.38;;
55575;SDS011;41437;45.478;9.116;2022-12-07T08:07:23;37.25;;;20.13;;
55575;SDS011;41437;45.478;9.116;2022-12-07T08:10:24;34.30;;;20.75;;
55575;SDS011;41437;45.478;9.116;2022-12-07T08:13:26;45.03;;;22.10;;
55575;SDS011;41437;45.478;9.116;2022-12-07T08:16:28;46.03;;;21.25;;
55575;SDS011;41437;45.478;9.116;2022-12-07T08:19:30;37.47;;;21.88;;
55575;SDS011;41437;45.478;9.116;2022-12-07T08:22:34;33.30;;;20.05;;
55575;SDS011;41437;45.478;9.116;2022-12-07T08:25:37;29.65;;;19.65;;
55575;SDS011;41437;45.478;9.116;2022-12-07T08:28:39;33.53;;;20.10;;
55575;SDS011;41437;45.478;9.116;2022-12-07T08:31:41;34.13;;;20.10;;
55575;SDS011;41437;45.478;9.116;2022-12-07T08:34:43;32.72;;;19.20;;
55575;SDS011;41437;45.478;9.116;2022-12-07T08:37:46;40.63;;;21.10;;
55575;SDS011;41437;45.478;9.116;2022-12-07T08:40:53;40.67;;;20.63;;
55575;SDS011;41437;45.478;9.116;2022-12-07T08:43:55;97.22;;;22.55;;
55575;SDS011;41437;45.478;9.116;2022-12-07T08:46:58;44.85;;;21.65;;
55575;SDS011;41437;45.478;9.116;2022-12-07T08:50:02;38.03;;;21.67;;
55575;SDS011;41437;45.478;9.116;2022-12-07T08:53:08;39.25;;;21.08;;
55575;SDS011;41437;45.478;9.116;2022-12-07T08:56:10;32.67;;;19.73;;
55575;SDS011;41437;45.478;9.116;2022-12-07T08:59:12;35.33;;;20.08;;
55575;SDS011;41437;45.478;9.116;2022-12-07T09:02:16;42.50;;;21.60;;
55575;SDS011;41437;45.478;9.116;2022-12-07T09:05:17;63.55;;;19.92;;
55575;SDS011;41437;45.478;9.116;2022-12-07T09:08:20;28.20;;;17.88;;
55575;SDS011;41437;45.478;9.116;2022-12-07T09:11:24;27.35;;;18.17;;
55575;SDS011;41437;45.478;9.116;2022-12-07T09:14:29;42.67;;;18.70;;
55575;SDS011;41437;45.478;9.116;2022-12-07T09:17:31;67.53;;;20.40;;
55575;SDS011;41437;45.478;9.116;2022-12-07T09:20:34;34.47;;;20.03;;
55575;SDS011;41437;45.478;9.116;2022-12-07T09:23:37;30.83;;;19.50;;
55575;SDS011;41437;45.478;9.116;2022-12-07T09:26:39;27.73;;;18.13;;
55575;SDS011;41437;45.478;9.116;2022-12-07T09:29:40;36.33;;;18.55;;
55575;SDS011;41437;45.478;9.116;2022-12-07T09:32:42;28.48;;;18.40;;
55575;SDS011;41437;45.478;9.116;2022-12-07T09:35:44;35.10;;;19.30;;
55575;SDS011;41437;45.478;9.116;2022-12-07T09:38:47;30.25;;;19.90;;
55575;SDS011;41437;45.478;9.116;2022-12-07T09:41:49;55.30;;;20.08;;
55575;SDS011;41437;45.478;9.116;2022-12-07T09:44:51;26.60;;;19.20;;
55575;SDS011;41437;45.478;9.116;2022-12-07T09:47:52;28.02;;;19.38;;
55575;SDS011;41437;45.478;9.116;2022-12-07T09:50:54;29.25;;;19.40;;
55575;SDS011;41437;45.478;9.116;2022-12-07T09:54:00;26.60;;;18.65;;
55575;SDS011;41437;45.478;9.116;2022-12-07T09:57:03;32.10;;;19.70;;
55575;SDS011;41437;45.478;9.116;2022-12-07T10:00:09;32.70;;;20.95;;
55575;SDS011;41437;45.478;9.116;2022-12-07T10:03:14;33.28;;;20.70;;
55575;SDS011;41437;45.478;9.116;2022-12-07T10:06:16;29.85;;;20.45;;
55575;SDS011;41437;45.478;9.116;2022-12-07T10:09:20;37.10;;;22.15;;
55575;SDS011;41437;45.478;9.116;2022-12-07T10:12:22;37.92;;;22.02;;
55575;SDS011;41437;45.478;9.116;2022-12-07T10:15:37;35.42;;;22.70;;
55575;SDS011;41437;45.478;9.116;2022-12-07T10:18:44;32.80;;;23.20;;
55575;SDS011;41437;45.478;9.116;2022-12-07T10:21:58;36.30;;;23.92;;
55575;SDS011;41437;45.478;9.116;2022-12-07T10:25:09;34.10;;;23.80;;
55575;SDS011;41437;45.478;9.116;2022-12-07T10:28:19;39.33;;;25.92;;
55575;SDS011;41437;45.478;9.116;2022-12-07T10:31:21;35.00;;;23.98;;
55575;SDS011;41437;45.478;9.116;2022-12-07T10:34:24;36.85;;;23.90;;
55575;SDS011;41437;45.478;9.116;2022-12-07T10:37:28;35.00;;;24.73;;
55575;SDS011;41437;45.478;9.116;2022-12-07T10:40:33;37.92;;;26.90;;
55575;SDS011;41437;45.478;9.116;2022-12-07T10:43:43;39.55;;;26.35;;
55575;SDS011;41437;45.478;9.116;2022-12-07T10:47:01;42.00;;;27.27;;
55575;SDS011;41437;45.478;9.116;2022-12-07T10:50:26;38.60;;;26.88;;
55575;SDS011;41437;45.478;9.116;2022-12-07T10:53:44;38.30;;;26.15;;
55575;SDS011;41437;45.478;9.116;2022-12-07T10:57:00;36.65;;;25.13;;
55575;SDS011;41437;45.478;9.116;2022-12-07T11:00:13;39.17;;;26.52;;
55575;SDS011;41437;45.478;9.116;2022-12-07T11:03:23;39.35;;;26.33;;
55575;SDS011;41437;45.478;9.116;2022-12-07T11:06:33;38.47;;;25.77;;
55575;SDS011;41437;45.478;9.116;2022-12-07T11:09:47;45.28;;;25.98;;
55575;SDS011;41437;45.478;9.116;2022-12-07T11:13:14;36.67;;;24.65;;
55575;SDS011;41437;45.478;9.116;2022-12-07T11:16:45;35.22;;;23.27;;
55575;SDS011;41437;45.478;9.116;2022-12-07T11:19:59;32.50;;;24.23;;
55575;SDS011;41437;45.478;9.116;2022-12-07T11:23:09;38.00;;;24.73;;
55575;SDS011;41437;45.478;9.116;2022-12-07T11:26:21;37.53;;;26.05;;
55575;SDS011;41437;45.478;9.116;2022-12-07T11:29:51;39.15;;;27.52;;
55575;SDS011;41437;45.478;9.116;2022-12-07T11:33:04;38.10;;;25.80;;
55575;SDS011;41437;45.478;9.116;2022-12-07T11:36:17;42.72;;;28.17;;
55575;SDS011;41437;45.478;9.116;2022-12-07T11:39:39;42.15;;;26.95;;
55575;SDS011;41437;45.478;9.116;2022-12-07T11:42:46;43.88;;;27.90;;
55575;SDS011;41437;45.478;9.116;2022-12-07T11:45:56;45.70;;;29.75;;
55575;SDS011;41437;45.478;9.116;2022-12-07T11:49:04;42.08;;;29.08;;
55575;SDS011;41437;45.478;9.116;2022-12-07T11:52:16;46.63;;;30.65;;
55575;SDS011;41437;45.478;9.116;2022-12-07T11:55:24;47.60;;;32.33;;
55575;SDS011;41437;45.478;9.116;2022-12-07T11:58:42;52.47;;;32.60;;
55575;SDS011;41437;45.478;9.116;2022-12-07T12:01:53;54.10;;;32.85;;
55575;SDS011;41437;45.478;9.116;2022-12-07T12:04:58;52.05;;;34.25;;
55575;SDS011;41437;45.478;9.116;2022-12-07T12:08:11;53.40;;;33.55;;
55575;SDS011;41437;45.478;9.116;2022-12-07T12:11:19;55.67;;;34.35;;
55575;SDS011;41437;45.478;9.116;2022-12-07T12:14:39;57.38;;;35.03;;
55575;SDS011;41437;45.478;9.116;2022-12-07T12:17:59;54.95;;;34.28;;
55575;SDS011;41437;45.478;9.116;2022-12-07T12:21:12;60.03;;;34.20;;
55575;SDS011;41437;45.478;9.116;2022-12-07T12:24:17;56.08;;;33.45;;
55575;SDS011;41437;45.478;9.116;2022-12-07T12:27:24;59.10;;;33.35;;
55575;SDS011;41437;45.478;9.116;2022-12-07T12:30:31;55.72;;;33.13;;
55575;SDS011;41437;45.478;9.116;2022-12-07T12:33:38;52.28;;;30.88;;
55575;SDS011;41437;45.478;9.116;2022-12-07T12:36:45;53.78;;;31.30;;
55575;SDS011;41437;45.478;9.116;2022-12-07T12:43:44;44.28;;;28.30;;
55575;SDS011;41437;45.478;9.116;2022-12-07T12:46:52;47.45;;;27.05;;
55575;SDS011;41437;45.478;9.116;2022-12-07T12:50:12;54.67;;;28.50;;
55575;SDS011;41437;45.478;9.116;2022-12-07T12:53:21;49.47;;;28.02;;
55575;SDS011;41437;45.478;9.116;2022-12-07T12:56:30;40.78;;;26.92;;
55575;SDS011;41437;45.478;9.116;2022-12-07T12:59:40;48.20;;;27.15;;
55575;SDS011;41437;45.478;9.116;2022-12-07T13:02:47;40.85;;;25.35;;
55575;SDS011;41437;45.478;9.116;2022-12-07T13:06:04;41.97;;;25.45;;
55575;SDS011;41437;45.478;9.116;2022-12-07T13:09:20;35.60;;;24.40;;
55575;SDS011;41437;45.478;9.116;2022-12-07T13:12:25;35.90;;;24.58;;
55575;SDS011;41437;45.478;9.116;2022-12-07T13:15:34;39.55;;;24.70;;
55575;SDS011;41437;45.478;9.116;2022-12-07T13:18:38;39.08;;;24.48;;
55575;SDS011;41437;45.478;9.116;2022-12-07T13:21:42;39.28;;;25.27;;
55575;SDS011;41437;45.478;9.116;2022-12-07T13:24:46;37.08;;;23.50;;
55575;SDS011;41437;45.478;9.116;2022-12-07T13:27:50;39.05;;;24.30;;
55575;SDS011;41437;45.478;9.116;2022-12-07T13:31:04;36.58;;;24.02;;
55575;SDS011;41437;45.478;9.116;2022-12-07T13:34:28;35.97;;;24.48;;
55575;SDS011;41437;45.478;9.116;2022-12-07T13:37:32;34.15;;;23.33;;
55575;SDS011;41437;45.478;9.116;2022-12-07T13:40:34;31.33;;;22.15;;
55575;SDS011;41437;45.478;9.116;2022-12-07T13:43:42;33.25;;;22.58;;
55575;SDS011;41437;45.478;9.116;2022-12-07T13:46:53;33.70;;;22.13;;
55575;SDS011;41437;45.478;9.116;2022-12-07T13:50:01;33.30;;;22.90;;
55575;SDS011;41437;45.478;9.116;2022-12-07T13:53:10;33.63;;;22.75;;
55575;SDS011;41437;45.478;9.116;2022-12-07T13:56:14;33.58;;;22.65;;
55575;SDS011;41437;45.478;9.116;2022-12-07T13:59:16;33.55;;;23.35;;
55575;SDS011;41437;45.478;9.116;2022-12-07T14:02:20;32.63;;;22.90;;
55575;SDS011;41437;45.478;9.116;2022-12-07T14:05:24;34.08;;;22.50;;
55575;SDS011;41437;45.478;9.116;2022-12-07T14:08:29;35.95;;;23.83;;
55575;SDS011;41437;45.478;9.116;2022-12-07T14:11:32;30.83;;;21.63;;
55575;SDS011;41437;45.478;9.116;2022-12-07T14:14:33;37.17;;;23.48;;
55575;SDS011;41437;45.478;9.116;2022-12-07T14:17:35;33.70;;;22.60;;
55575;SDS011;41437;45.478;9.116;2022-12-07T14:20:37;32.88;;;22.10;;
55575;SDS011;41437;45.478;9.116;2022-12-07T14:23:42;30.23;;;21.55;;
55575;SDS011;41437;45.478;9.116;2022-12-07T14:26:44;33.23;;;22.07;;
55575;SDS011;41437;45.478;9.116;2022-12-07T14:29:46;34.05;;;22.85;;
55575;SDS011;41437;45.478;9.116;2022-12-07T14:32:49;32.45;;;22.08;;
55575;SDS011;41437;45.478;9.116;2022-12-07T14:35:54;33.50;;;22.45;;
55575;SDS011;41437;45.478;9.116;2022-12-07T14:38:59;31.40;;;21.42;;
55575;SDS011;41437;45.478;9.116;2022-12-07T14:42:01;30.55;;;21.80;;
55575;SDS011;41437;45.478;9.116;2022-12-07T14:45:02;30.08;;;22.25;;
55575;SDS011;41437;45.478;9.116;2022-12-07T14:48:04;36.17;;;24.00;;
55575;SDS011;41437;45.478;9.116;2022-12-07T14:51:07;33.15;;;22.40;;
55575;SDS011;41437;45.478;9.116;2022-12-07T14:54:13;36.00;;;22.55;;
55575;SDS011;41437;45.478;9.116;2022-12-07T14:57:17;33.83;;;23.48;;
55575;SDS011;41437;45.478;9.116;2022-12-07T15:00:20;33.42;;;23.95;;
55575;SDS011;41437;45.478;9.116;2022-12-07T15:03:23;35.10;;;24.08;;
55575;SDS011;41437;45.478;9.116;2022-12-07T15:06:24;33.05;;;23.27;;
55575;SDS011;41437;45.478;9.116;2022-12-07T15:09:28;34.85;;;22.83;;
55575;SDS011;41437;45.478;9.116;2022-12-07T15:12:30;35.05;;;22.83;;
55575;SDS011;41437;45.478;9.116;2022-12-07T15:15:31;32.35;;;22.92;;
55575;SDS011;41437;45.478;9.116;2022-12-07T15:18:33;29.02;;;22.15;;
55575;SDS011;41437;45.478;9.116;2022-12-07T15:21:35;33.33;;;21.88;;
55575;SDS011;41437;45.478;9.116;2022-12-07T15:24:38;31.73;;;22.38;;
55575;SDS011;41437;45.478;9.116;2022-12-07T15:27:39;36.05;;;22.88;;
55575;SDS011;41437;45.478;9.116;2022-12-07T15:30:41;39.08;;;23.40;;
55575;SDS011;41437;45.478;9.116;2022-12-07T15:33:44;33.83;;;23.30;;
55575;SDS011;41437;45.478;9.116;2022-12-07T15:36:46;33.05;;;22.13;;
55575;SDS011;41437;45.478;9.116;2022-12-07T15:39:49;35.70;;;23.55;;
55575;SDS011;41437;45.478;9.116;2022-12-07T15:42:50;38.22;;;23.75;;
55575;SDS011;41437;45.478;9.116;2022-12-07T15:45:53;32.05;;;22.30;;
55575;SDS011;41437;45.478;9.116;2022-12-07T15:48:53;34.85;;;24.55;;
55575;SDS011;41437;45.478;9.116;2022-12-07T15:51:55;35.65;;;23.35;;
55575;SDS011;41437;45.478;9.116;2022-12-07T15:54:58;33.40;;;23.60;;
55575;SDS011;41437;45.478;9.116;2022-12-07T15:58:02;34.95;;;24.08;;
55575;SDS011;41437;45.478;9.116;2022-12-07T16:01:09;34.20;;;24.50;;
55575;SDS011;41437;45.478;9.116;2022-12-07T16:04:11;33.95;;;24.92;;
55575;SDS011;41437;45.478;9.116;2022-12-07T16:07:13;33.05;;;24.52;;
55575;SDS011;41437;45.478;9.116;2022-12-07T16:10:17;37.13;;;24.65;;
55575;SDS011;41437;45.478;9.116;2022-12-07T16:13:19;39.83;;;25.73;;
55575;SDS011;41437;45.478;9.116;2022-12-07T16:16:21;37.72;;;25.60;;
55575;SDS011;41437;45.478;9.116;2022-12-07T16:19:23;41.42;;;28.42;;
55575;SDS011;41437;45.478;9.116;2022-12-07T16:22:24;40.67;;;28.58;;
55575;SDS011;41437;45.478;9.116;2022-12-07T16:25:28;46.33;;;29.27;;
55575;SDS011;41437;45.478;9.116;2022-12-07T16:28:29;44.13;;;28.63;;
55575;SDS011;41437;45.478;9.116;2022-12-07T16:31:31;46.35;;;31.63;;
55575;SDS011;41437;45.478;9.116;2022-12-07T16:34:33;50.08;;;31.42;;
55575;SDS011;41437;45.478;9.116;2022-12-07T16:37:35;53.10;;;31.20;;
55575;SDS011;41437;45.478;9.116;2022-12-07T16:40:38;53.50;;;32.53;;
55575;SDS011;41437;45.478;9.116;2022-12-07T16:43:40;60.85;;;33.70;;
55575;SDS011;41437;45.478;9.116;2022-12-07T16:46:41;66.63;;;37.30;;
55575;SDS011;41437;45.478;9.116;2022-12-07T16:49:43;65.60;;;36.95;;
55575;SDS011;41437;45.478;9.116;2022-12-07T16:52:45;70.10;;;37.78;;
55575;SDS011;41437;45.478;9.116;2022-12-07T16:55:48;80.82;;;39.90;;
55575;SDS011;41437;45.478;9.116;2022-12-07T16:58:50;79.90;;;40.60;;
55575;SDS011;41437;45.478;9.116;2022-12-07T17:01:51;76.18;;;39.78;;
55575;SDS011;41437;45.478;9.116;2022-12-07T17:04:53;101.20;;;41.90;;
55575;SDS011;41437;45.478;9.116;2022-12-07T17:07:55;68.15;;;36.97;;
55575;SDS011;41437;45.478;9.116;2022-12-07T17:10:59;81.07;;;38.75;;
55575;SDS011;41437;45.478;9.116;2022-12-07T17:14:00;94.50;;;38.78;;
55575;SDS011;41437;45.478;9.116;2022-12-07T17:17:19;80.82;;;37.33;;
55575;SDS011;41437;45.478;9.116;2022-12-07T17:20:21;111.47;;;38.08;;
55575;SDS011;41437;45.478;9.116;2022-12-07T17:23:24;83.93;;;37.22;;
55575;SDS011;41437;45.478;9.116;2022-12-07T17:26:28;75.30;;;40.55;;
55575;SDS011;41437;45.478;9.116;2022-12-07T17:29:30;76.03;;;39.95;;
55575;SDS011;41437;45.478;9.116;2022-12-07T17:32:32;77.60;;;40.50;;
55575;SDS011;41437;45.478;9.116;2022-12-07T17:35:34;80.00;;;39.47;;
55575;SDS011;41437;45.478;9.116;2022-12-07T17:38:35;176.25;;;41.47;;
55575;SDS011;41437;45.478;9.116;2022-12-07T17:41:38;65.97;;;36.17;;
55575;SDS011;41437;45.478;9.116;2022-12-07T17:44:58;62.13;;;35.70;;
55575;SDS011;41437;45.478;9.116;2022-12-07T17:48:00;101.75;;;39.03;;
55575;SDS011;41437;45.478;9.116;2022-12-07T17:51:02;71.05;;;36.88;;
55575;SDS011;41437;45.478;9.116;2022-12-07T17:54:21;98.88;;;37.40;;
55575;SDS011;41437;45.478;9.116;2022-12-07T17:57:25;436.35;;;48.22;;
55575;SDS011;41437;45.478;9.116;2022-12-07T18:00:27;70.03;;;37.00;;
55575;SDS011;41437;45.478;9.116;2022-12-07T18:03:29;84.32;;;38.17;;
55575;SDS011;41437;45.478;9.116;2022-12-07T18:06:31;79.85;;;37.65;;
55575;SDS011;41437;45.478;9.116;2022-12-07T18:09:33;138.77;;;41.38;;
55575;SDS011;41437;45.478;9.116;2022-12-07T18:12:36;75.05;;;39.22;;
55575;SDS011;41437;45.478;9.116;2022-12-07T18:15:39;124.35;;;42.97;;